createdAt,value
2023-02-28T00:01:47.663Z,1.70
2023-02-28T00:04:27.642Z,1.60
2023-02-28T00:13:57.077Z,1.60
2023-02-28T00:16:59.667Z,1.60
2023-02-28T00:20:05.087Z,1.60
2023-02-28T00:22:53.544Z,1.50
2023-02-28T00:25:31.501Z,1.50
2023-02-28T00:31:26.447Z,1.60
2023-02-28T00:34:15.148Z,1.60
2023-02-28T00:37:00.259Z,1.50
2023-02-28T00:39:37.116Z,1.50
2023-02-28T00:42:11.628Z,1.50
2023-02-28T00:45:11.618Z,1.50
2023-02-28T00:53:46.022Z,1.30
2023-02-28T01:02:33.226Z,1.40
2023-02-28T01:05:14.822Z,1.40
2023-02-28T01:07:53.859Z,1.30
2023-02-28T01:10:36.102Z,1.30
2023-02-28T01:16:29.218Z,1.40
2023-02-28T01:19:35.779Z,1.40
2023-02-28T01:25:14.362Z,1.40
2023-02-28T01:28:00.740Z,1.40
2023-02-28T01:30:43.709Z,1.40
2023-02-28T01:33:31.810Z,1.40
2023-02-28T01:36:24.580Z,1.40
2023-02-28T01:39:44.279Z,1.40
2023-02-28T01:48:17.694Z,1.40
2023-02-28T01:51:16.123Z,1.40
2023-02-28T01:54:18.725Z,1.40
2023-02-28T02:03:22.509Z,1.40
2023-02-28T02:06:03.481Z,1.40
2023-02-28T02:08:35.322Z,1.40
2023-02-28T02:11:11.073Z,1.40
2023-02-28T02:14:07.305Z,1.40
2023-02-28T02:17:09.372Z,1.40
2023-02-28T02:20:32.421Z,1.40
2023-02-28T02:23:30.811Z,1.40
2023-02-28T02:26:17.537Z,1.40
2023-02-28T02:29:16.892Z,1.40
2023-02-28T02:32:17.317Z,1.40
2023-02-28T02:35:12.590Z,1.40
2023-02-28T02:38:13.239Z,1.40
2023-02-28T02:41:04.584Z,1.40
2023-02-28T02:43:43.941Z,1.30
2023-02-28T02:46:49.927Z,1.40
2023-02-28T02:49:26.260Z,1.30
2023-02-28T02:55:08.745Z,1.20
2023-02-28T02:57:46.906Z,1.20
2023-02-28T03:00:24.421Z,1.10
2023-02-28T03:03:05.617Z,1.10
2023-02-28T03:05:44.103Z,1.10
2023-02-28T03:08:41.692Z,1.10
2023-02-28T03:11:19.452Z,1.00
2023-02-28T03:14:18.729Z,1.00
2023-02-28T03:17:03.135Z,1.00
2023-02-28T03:19:53.583Z,0.90
2023-02-28T03:22:44.131Z,0.90
2023-02-28T03:25:46.645Z,0.90
2023-02-28T03:28:38.956Z,0.90
2023-02-28T03:31:29.191Z,0.90
2023-02-28T03:34:09.066Z,0.90
2023-02-28T03:36:54.984Z,0.90
2023-02-28T03:42:54.515Z,0.90
2023-02-28T03:45:39.367Z,0.90
2023-02-28T03:48:42.948Z,0.80
2023-02-28T03:51:18.859Z,0.80
2023-02-28T03:54:10.517Z,0.70
2023-02-28T03:56:47.138Z,0.80
2023-02-28T03:59:22.982Z,0.80
2023-02-28T04:02:02.769Z,0.80
2023-02-28T04:04:48.429Z,0.90
2023-02-28T04:07:21.075Z,0.90
2023-02-28T04:12:45.230Z,0.80
2023-02-28T04:15:17.701Z,0.90
2023-02-28T04:18:11.617Z,0.90
2023-02-28T04:21:07.218Z,0.90
2023-02-28T04:23:47.939Z,0.90
2023-02-28T04:26:38.039Z,0.90
2023-02-28T04:29:40.478Z,0.90
2023-02-28T04:32:19.880Z,0.90
2023-02-28T04:34:58.167Z,0.90
2023-02-28T04:37:36.441Z,0.90
2023-02-28T04:40:13.608Z,0.80
2023-02-28T04:42:56.258Z,0.80
2023-02-28T04:45:29.873Z,0.90
2023-02-28T04:48:04.257Z,0.90
2023-02-28T04:51:00.575Z,0.80
2023-02-28T05:02:08.408Z,0.70
2023-02-28T05:04:49.175Z,0.90
2023-02-28T05:07:26.822Z,0.90
2023-02-28T05:10:21.142Z,0.90
2023-02-28T05:13:21.381Z,0.80
2023-02-28T05:16:18.973Z,0.80
2023-02-28T05:18:53.089Z,0.80
2023-02-28T05:21:44.411Z,0.80
2023-02-28T05:24:48.911Z,0.80
2023-02-28T05:27:24.743Z,0.70
2023-02-28T05:30:16.291Z,0.70
2023-02-28T05:33:08.729Z,0.80
2023-02-28T05:35:42.999Z,0.80
2023-02-28T05:38:27.297Z,0.90
2023-02-28T05:41:14.662Z,0.80
2023-02-28T05:47:03.501Z,0.90
2023-02-28T05:49:45.841Z,0.90
2023-02-28T05:55:30.384Z,0.90
2023-02-28T05:58:20.729Z,0.80
2023-02-28T06:03:54.506Z,0.90
2023-02-28T06:06:36.754Z,0.80
2023-02-28T06:09:13.215Z,0.80
2023-02-28T06:11:53.216Z,0.80
2023-02-28T06:14:37.273Z,0.80
2023-02-28T06:17:17.619Z,0.80
2023-02-28T06:25:52.706Z,0.60
2023-02-28T06:31:21.838Z,0.70
2023-02-28T06:34:01.913Z,0.60
2023-02-28T06:36:40.198Z,0.50
2023-02-28T06:39:16.058Z,0.50
2023-02-28T06:42:15.896Z,0.50
2023-02-28T06:47:57.973Z,0.50
2023-02-28T06:50:45.989Z,0.50
2023-02-28T06:53:29.810Z,0.60
2023-02-28T06:56:12.377Z,0.60
2023-02-28T06:58:44.879Z,0.70
2023-02-28T07:01:23.881Z,0.70
2023-02-28T07:04:00.371Z,0.70
2023-02-28T07:06:43.576Z,0.80
2023-02-28T07:09:14.553Z,0.90
2023-02-28T07:11:56.114Z,0.90
2023-02-28T07:14:47.623Z,1.00
2023-02-28T07:17:33.323Z,1.00
2023-02-28T07:20:11.082Z,1.00
2023-02-28T07:23:02.534Z,1.10
2023-02-28T07:28:25.883Z,1.10
2023-02-28T07:31:00.373Z,1.20
2023-02-28T07:33:37.516Z,1.20
2023-02-28T07:36:24.202Z,1.10
2023-02-28T07:41:52.033Z,1.30
2023-02-28T07:44:32.235Z,1.50
2023-02-28T07:47:09.881Z,1.60
2023-02-28T07:49:48.589Z,1.70
2023-02-28T07:52:34.277Z,1.70
2023-02-28T07:55:10.006Z,1.90
2023-02-28T07:57:40.442Z,2.00
2023-02-28T08:03:06.207Z,2.20
2023-02-28T08:05:39.105Z,2.20
2023-02-28T08:08:09.902Z,2.20
2023-02-28T08:11:10.702Z,2.20
2023-02-28T08:13:57.981Z,2.20
2023-02-28T08:16:35.113Z,2.20
2023-02-28T08:22:10.220Z,2.40
2023-02-28T08:24:58.703Z,2.60
2023-02-28T08:27:43.049Z,2.80
2023-02-28T08:30:44.800Z,2.80
2023-02-28T08:33:37.961Z,3.00
2023-02-28T08:36:57.994Z,2.80
2023-02-28T08:39:42.224Z,2.90
2023-02-28T08:42:22.465Z,3.10
2023-02-28T08:44:58.817Z,3.20
2023-02-28T08:47:34.903Z,3.20
2023-02-28T08:50:22.519Z,3.10
2023-02-28T08:52:56.592Z,3.00
2023-02-28T08:55:42.894Z,3.10
2023-02-28T08:58:41.875Z,3.00
2023-02-28T09:01:38.670Z,3.00
2023-02-28T09:04:28.035Z,3.00
2023-02-28T09:07:15.630Z,3.10
2023-02-28T09:13:10.541Z,3.60
2023-02-28T09:16:08.287Z,3.20
2023-02-28T09:18:52.577Z,3.10
2023-02-28T09:21:25.713Z,3.40
2023-02-28T09:24:28.655Z,3.50
2023-02-28T09:27:08.319Z,3.60
2023-02-28T09:29:46.493Z,3.70
2023-02-28T09:32:42.213Z,3.60
2023-02-28T09:38:13.545Z,3.50
2023-02-28T09:41:12.776Z,3.60
2023-02-28T09:43:56.585Z,3.70
2023-02-28T09:49:41.104Z,4.00
2023-02-28T09:52:30.439Z,4.10
2023-02-28T09:55:47.120Z,3.90
2023-02-28T09:58:32.347Z,3.80
2023-02-28T10:01:20.731Z,3.80
2023-02-28T10:04:11.873Z,3.90
2023-02-28T10:07:02.552Z,4.10
2023-02-28T10:09:41.718Z,4.50
2023-02-28T10:12:13.697Z,4.80
2023-02-28T10:14:54.034Z,4.90
2023-02-28T10:17:54.860Z,4.60
2023-02-28T10:20:53.226Z,4.20
2023-02-28T10:23:46.663Z,4.00
2023-02-28T10:26:47.353Z,3.90
2023-02-28T10:29:47.852Z,4.00
2023-02-28T10:32:28.434Z,4.20
2023-02-28T10:35:05.806Z,4.10
2023-02-28T10:37:45.101Z,4.10
2023-02-28T10:40:38.866Z,4.10
2023-02-28T10:43:37.484Z,4.30
2023-02-28T10:46:29.259Z,4.10
2023-02-28T10:49:28.757Z,4.10
2023-02-28T10:52:15.250Z,4.30
2023-02-28T10:55:05.838Z,4.20
2023-02-28T10:57:43.903Z,4.20
2023-02-28T11:00:25.954Z,4.20
2023-02-28T11:02:57.205Z,4.20
2023-02-28T11:05:48.543Z,3.90
2023-02-28T11:08:24.984Z,3.90
2023-02-28T11:11:03.304Z,4.00
2023-02-28T11:13:51.538Z,4.00
2023-02-28T11:16:48.473Z,4.10
2023-02-28T11:19:24.326Z,4.20
2023-02-28T11:22:12.076Z,4.20
2023-02-28T11:25:01.680Z,4.20
2023-02-28T11:27:52.891Z,4.30
2023-02-28T11:30:36.709Z,4.20
2023-02-28T11:33:49.212Z,4.20
2023-02-28T11:36:34.618Z,4.40
2023-02-28T11:39:12.834Z,4.40
2023-02-28T11:41:55.588Z,4.30
2023-02-28T11:44:43.179Z,4.30
2023-02-28T11:47:19.755Z,4.20
2023-02-28T11:50:17.997Z,4.10
2023-02-28T11:53:00.756Z,4.20
2023-02-28T11:55:58.463Z,4.40
2023-02-28T11:58:59.551Z,4.60
2023-02-28T12:01:48.266Z,4.80
2023-02-28T12:04:40.706Z,4.70
2023-02-28T12:07:17.216Z,4.70
2023-02-28T12:09:58.565Z,4.90
2023-02-28T12:12:52.557Z,4.90
2023-02-28T12:15:36.556Z,4.80
2023-02-28T12:18:33.155Z,5.00
2023-02-28T12:21:32.535Z,4.80
2023-02-28T12:24:23.143Z,4.80
2023-02-28T12:26:59.502Z,4.60
2023-02-28T12:29:38.631Z,4.50
2023-02-28T12:32:26.321Z,4.50
2023-02-28T12:35:24.590Z,4.60
2023-02-28T12:38:09.163Z,4.80
2023-02-28T12:40:51.902Z,4.80
2023-02-28T12:43:44.161Z,4.90
2023-02-28T12:46:23.878Z,4.80
2023-02-28T12:49:18.295Z,4.70
2023-02-28T12:51:56.580Z,4.80
2023-02-28T12:54:34.451Z,4.80
2023-02-28T12:57:14.894Z,4.80
2023-02-28T12:59:55.721Z,5.10
2023-02-28T13:03:11.890Z,5.20
2023-02-28T13:06:07.546Z,5.10
2023-02-28T13:08:55.558Z,5.20
2023-02-28T13:12:02.418Z,5.00
2023-02-28T13:14:55.515Z,5.20
2023-02-28T13:17:33.237Z,5.10
2023-02-28T13:23:19.062Z,5.00
2023-02-28T13:25:59.536Z,5.20
2023-02-28T13:29:10.358Z,5.20
2023-02-28T13:32:00.217Z,5.10
2023-02-28T13:34:44.991Z,5.10
2023-02-28T13:37:33.409Z,5.10
2023-02-28T13:40:22.739Z,5.10
2023-02-28T13:43:27.889Z,4.90
2023-02-28T13:46:31.978Z,4.90
2023-02-28T13:49:25.693Z,5.00
2023-02-28T13:52:10.702Z,5.10
2023-02-28T13:54:55.753Z,5.10
2023-02-28T13:57:40.606Z,5.10
2023-02-28T14:00:27.125Z,5.10
2023-02-28T14:03:19.002Z,5.20
2023-02-28T14:06:11.012Z,5.20
2023-02-28T14:08:49.352Z,5.10
2023-02-28T14:11:33.395Z,5.00
2023-02-28T14:14:27.014Z,5.10
2023-02-28T14:17:06.821Z,5.20
2023-02-28T14:19:42.313Z,5.30
2023-02-28T14:22:23.931Z,5.10
2023-02-28T14:25:11.292Z,5.00
2023-02-28T14:27:58.103Z,5.00
2023-02-28T14:30:48.798Z,4.90
2023-02-28T14:33:31.166Z,5.00
2023-02-28T14:36:37.771Z,5.00
2023-02-28T14:44:52.928Z,4.80
2023-02-28T14:47:27.858Z,4.80
2023-02-28T14:49:59.335Z,4.70
2023-02-28T14:52:38.548Z,4.70
2023-02-28T14:55:28.434Z,4.70
2023-02-28T14:58:07.978Z,4.80
2023-02-28T15:00:42.604Z,4.70
2023-02-28T15:03:24.264Z,4.60
2023-02-28T15:06:25.811Z,4.60
2023-02-28T15:09:12.073Z,4.60
2023-02-28T15:11:53.373Z,4.60
2023-02-28T15:14:35.629Z,4.60
2023-02-28T15:17:15.939Z,4.60
2023-02-28T15:19:51.421Z,4.60
2023-02-28T15:22:35.752Z,4.60
2023-02-28T15:25:26.272Z,4.60
2023-02-28T15:28:18.130Z,4.60
2023-02-28T15:31:07.373Z,4.60
2023-02-28T15:34:10.178Z,4.60
2023-02-28T15:36:45.809Z,4.50
2023-02-28T15:39:29.499Z,4.60
2023-02-28T15:42:17.969Z,4.50
2023-02-28T15:45:04.680Z,4.50
2023-02-28T15:47:50.118Z,4.50
2023-02-28T15:50:43.085Z,4.50
2023-02-28T15:53:22.943Z,4.50
2023-02-28T15:56:19.292Z,4.40
2023-02-28T15:59:21.039Z,4.40
2023-02-28T16:01:58.137Z,4.30
2023-02-28T16:04:32.072Z,4.20
2023-02-28T16:07:21.670Z,4.20
2023-02-28T16:09:58.158Z,4.20
2023-02-28T16:13:06.208Z,4.20
2023-02-28T16:15:52.351Z,4.10
2023-02-28T16:18:32.442Z,4.00
2023-02-28T16:21:32.577Z,4.00
2023-02-28T16:27:01.567Z,3.90
2023-02-28T16:29:36.492Z,3.90
2023-02-28T16:32:15.033Z,3.80
2023-02-28T16:34:54.757Z,3.80
2023-02-28T16:37:28.552Z,3.80
2023-02-28T16:40:22.044Z,3.80
2023-02-28T16:43:16.551Z,3.70
2023-02-28T16:46:07.156Z,3.70
2023-02-28T16:48:48.513Z,3.60
2023-02-28T16:51:19.336Z,3.60
2023-02-28T16:53:53.034Z,3.60
2023-02-28T16:56:29.265Z,3.60
2023-02-28T17:02:27.789Z,3.50
2023-02-28T17:05:02.726Z,3.40
2023-02-28T17:07:44.824Z,3.40
2023-02-28T17:10:40.619Z,3.30
2023-02-28T17:13:21.152Z,3.30
2023-02-28T17:15:56.140Z,3.30
2023-02-28T17:18:35.724Z,3.30
2023-02-28T17:21:07.602Z,3.20
2023-02-28T17:23:50.753Z,3.20
2023-02-28T17:26:30.998Z,3.20
2023-02-28T17:29:10.453Z,3.20
2023-02-28T17:31:54.961Z,3.20
2023-02-28T17:34:36.028Z,3.10
2023-02-28T17:37:19.193Z,3.20
2023-02-28T17:40:10.910Z,3.10
2023-02-28T17:45:46.748Z,3.10
2023-02-28T17:51:18.947Z,3.10
2023-02-28T17:53:51.827Z,3.00
2023-02-28T17:59:48.469Z,3.00
2023-02-28T18:02:27.211Z,2.90
2023-02-28T18:05:01.463Z,2.90
2023-02-28T18:07:56.308Z,2.90
2023-02-28T18:10:29.764Z,2.80
2023-02-28T18:13:19.897Z,2.30
2023-02-28T18:16:20.309Z,2.80
2023-02-28T18:19:13.507Z,2.80
2023-02-28T18:21:43.508Z,2.70
2023-02-28T18:24:16.817Z,2.60
2023-02-28T18:26:48.515Z,2.70
2023-02-28T18:29:25.803Z,2.70
2023-02-28T18:32:14.314Z,2.70
2023-02-28T18:35:06.018Z,2.70
2023-02-28T18:37:46.840Z,2.60
2023-02-28T18:40:26.645Z,2.60
2023-02-28T18:43:06.127Z,2.60
2023-02-28T18:45:48.462Z,2.60
2023-02-28T18:48:39.115Z,2.60
2023-02-28T18:51:17.490Z,2.50
2023-02-28T18:53:53.599Z,2.50
2023-02-28T18:56:37.930Z,2.40
2023-02-28T18:59:07.816Z,2.40
2023-02-28T19:04:37.883Z,2.50
2023-02-28T19:07:39.310Z,2.50
2023-02-28T19:10:11.645Z,2.50
2023-02-28T19:13:08.439Z,2.40
2023-02-28T19:15:45.089Z,2.20
2023-02-28T19:18:18.890Z,2.30
2023-02-28T19:20:50.530Z,2.30
2023-02-28T19:23:27.729Z,2.30
2023-02-28T19:26:01.950Z,2.40
2023-02-28T19:28:43.042Z,2.30
2023-02-28T19:31:36.957Z,2.30
2023-02-28T19:37:11.317Z,2.20
2023-02-28T19:40:01.504Z,2.20
2023-02-28T19:42:56.961Z,2.20
2023-02-28T19:45:44.140Z,2.20
2023-02-28T19:48:15.324Z,2.20
2023-02-28T19:50:44.894Z,2.20
2023-02-28T19:53:35.761Z,2.20
2023-02-28T19:56:11.850Z,2.20
2023-02-28T19:58:48.918Z,2.20
2023-02-28T20:01:24.316Z,2.30
2023-02-28T20:04:20.097Z,2.30
2023-02-28T20:07:06.531Z,2.20
2023-02-28T20:09:48.180Z,2.20
2023-02-28T20:12:25.189Z,2.20
2023-02-28T20:15:16.553Z,2.20
2023-02-28T20:18:03.753Z,2.10
2023-02-28T20:20:36.914Z,2.00
2023-02-28T20:26:36.735Z,2.00
2023-02-28T20:29:23.214Z,2.00
2023-02-28T20:31:53.241Z,2.00
2023-02-28T20:37:28.376Z,2.00
2023-02-28T20:40:22.492Z,1.90
2023-02-28T20:46:18.204Z,1.80
2023-02-28T20:48:50.997Z,1.80
2023-02-28T20:51:37.375Z,1.70
2023-02-28T20:54:15.334Z,1.80
2023-02-28T20:57:01.876Z,1.70
2023-02-28T20:59:32.426Z,1.80
2023-02-28T21:02:07.790Z,1.80
2023-02-28T21:04:46.495Z,1.70
2023-02-28T21:07:25.497Z,1.60
2023-02-28T21:10:40.797Z,1.50
2023-02-28T21:13:10.198Z,1.60
2023-02-28T21:16:04.964Z,1.60
2023-02-28T21:21:28.278Z,1.50
2023-02-28T21:24:02.705Z,1.50
2023-02-28T21:26:38.248Z,1.50
2023-02-28T21:29:25.385Z,1.50
2023-02-28T21:32:01.673Z,1.50
2023-02-28T21:34:46.318Z,1.40
2023-02-28T21:37:23.298Z,1.30
2023-02-28T21:40:01.064Z,1.40
2023-02-28T21:45:27.179Z,1.30
2023-02-28T21:48:01.379Z,1.30
2023-02-28T21:50:32.767Z,1.30
2023-02-28T21:53:05.193Z,1.20
2023-02-28T21:55:54.047Z,1.20
2023-02-28T21:58:42.458Z,1.20
2023-02-28T22:01:22.043Z,1.10
2023-02-28T22:03:54.667Z,1.00
2023-02-28T22:06:40.497Z,0.90
2023-02-28T22:09:16.659Z,0.90
2023-02-28T22:14:38.077Z,0.90
2023-02-28T22:17:17.725Z,1.00
2023-02-28T22:19:52.380Z,1.00
2023-02-28T22:22:31.924Z,0.90
2023-02-28T22:25:21.242Z,1.00
2023-02-28T22:31:04.859Z,1.00
2023-02-28T22:33:50.889Z,1.10
2023-02-28T22:39:19.298Z,1.00
2023-02-28T22:42:01.756Z,1.00
2023-02-28T22:44:46.082Z,1.00
2023-02-28T22:50:38.136Z,1.00
2023-02-28T22:53:37.124Z,1.00
2023-02-28T22:56:17.518Z,1.00
2023-02-28T22:58:55.423Z,1.00
2023-02-28T23:05:09.070Z,1.00
2023-02-28T23:11:30.954Z,1.00
2023-02-28T23:14:19.246Z,1.00
2023-02-28T23:20:01.869Z,1.20
2023-02-28T23:22:55.535Z,0.90
2023-02-28T23:25:33.204Z,0.80
2023-02-28T23:28:08.399Z,0.70
2023-02-28T23:30:43.363Z,0.60
2023-02-28T23:33:28.564Z,0.60
2023-02-28T23:36:13.813Z,0.40
2023-02-28T23:39:10.404Z,0.60
2023-02-28T23:41:57.167Z,0.50
2023-02-28T23:54:41.894Z,0.50
